createdAt,value
2018-11-28T00:02:07.073Z,43.63
2018-11-28T00:04:38.231Z,37.93
2018-11-28T00:07:05.506Z,39.43
2018-11-28T00:09:32.667Z,37.80
2018-11-28T00:11:59.878Z,34.83
2018-11-28T00:14:27.129Z,42.73
2018-11-28T00:16:54.362Z,34.83
2018-11-28T00:19:21.775Z,39.93
2018-11-28T00:21:48.969Z,40.23
2018-11-28T00:24:16.306Z,39.03
2018-11-28T00:26:43.638Z,40.50
2018-11-28T00:29:10.874Z,43.17
2018-11-28T00:31:37.994Z,34.50
2018-11-28T00:34:10.070Z,35.30
2018-11-28T00:36:37.277Z,41.10
2018-11-28T00:39:06.771Z,39.10
2018-11-28T00:41:34.019Z,34.60
2018-11-28T00:44:03.454Z,46.87
2018-11-28T00:46:30.672Z,40.27
2018-11-28T00:48:57.845Z,36.77
2018-11-28T00:51:25.144Z,33.93
2018-11-28T00:53:53.043Z,40.63
2018-11-28T00:56:20.262Z,39.93
2018-11-28T00:58:47.412Z,40.53
2018-11-28T01:01:14.723Z,40.03
2018-11-28T01:03:43.054Z,35.37
2018-11-28T01:06:10.231Z,35.03
2018-11-28T01:08:37.400Z,39.60
2018-11-28T01:11:04.875Z,39.53
2018-11-28T01:13:34.215Z,37.50
2018-11-28T01:16:01.500Z,41.93
2018-11-28T01:18:28.832Z,38.20
2018-11-28T01:20:56.008Z,37.97
2018-11-28T01:23:23.318Z,38.50
2018-11-28T01:25:50.456Z,34.47
2018-11-28T01:28:17.753Z,36.50
2018-11-28T01:30:44.929Z,35.20
2018-11-28T01:33:12.121Z,36.13
2018-11-28T01:35:39.319Z,34.77
2018-11-28T01:38:06.585Z,36.10
2018-11-28T01:40:33.791Z,31.77
2018-11-28T01:43:01.108Z,36.30
2018-11-28T01:45:28.447Z,39.37
2018-11-28T01:47:55.629Z,40.03
2018-11-28T01:50:22.890Z,36.57
2018-11-28T01:52:50.072Z,37.53
2018-11-28T01:55:18.581Z,47.10
2018-11-28T01:57:46.413Z,39.87
2018-11-28T02:00:20.566Z,34.97
2018-11-28T02:02:50.051Z,38.03
2018-11-28T02:05:17.695Z,36.43
2018-11-28T02:07:44.943Z,43.63
2018-11-28T02:10:13.147Z,40.60
2018-11-28T02:12:40.483Z,41.60
2018-11-28T02:15:09.230Z,39.13
2018-11-28T02:17:36.505Z,35.97
2018-11-28T02:20:06.172Z,40.83
2018-11-28T02:22:33.444Z,40.97
2018-11-28T02:25:00.614Z,42.43
2018-11-28T02:27:27.737Z,41.80
2018-11-28T02:29:54.924Z,49.53
2018-11-28T02:32:43.758Z,41.23
2018-11-28T02:35:13.319Z,39.47
2018-11-28T02:37:40.570Z,47.60
2018-11-28T02:40:10.556Z,40.83
2018-11-28T02:42:37.844Z,41.83
2018-11-28T02:45:09.363Z,46.03
2018-11-28T02:47:36.539Z,36.27
2018-11-28T02:50:04.278Z,38.17
2018-11-28T02:52:31.521Z,42.33
2018-11-28T02:54:58.678Z,35.50
2018-11-28T02:57:25.969Z,39.37
2018-11-28T02:59:53.174Z,49.27
2018-11-28T03:02:20.354Z,44.30
2018-11-28T03:04:47.530Z,43.17
2018-11-28T03:07:14.720Z,37.17
2018-11-28T03:09:41.927Z,39.50
2018-11-28T03:12:09.114Z,38.83
2018-11-28T03:14:36.386Z,40.70
2018-11-28T03:17:03.557Z,40.50
2018-11-28T03:19:30.658Z,34.55
2018-11-28T03:21:57.935Z,42.17
2018-11-28T03:24:25.238Z,34.85
2018-11-28T03:26:52.460Z,34.90
2018-11-28T03:29:19.647Z,45.30
2018-11-28T03:31:46.831Z,41.63
2018-11-28T03:34:14.092Z,42.97
2018-11-28T03:36:41.342Z,39.83
2018-11-28T03:39:08.822Z,38.85
2018-11-28T03:41:36.193Z,43.10
2018-11-28T03:44:03.375Z,41.00
2018-11-28T03:46:30.564Z,33.73
2018-11-28T03:48:57.691Z,41.05
2018-11-28T03:51:25.045Z,49.67
2018-11-28T03:53:53.053Z,37.30
2018-11-28T03:56:20.233Z,36.77
2018-11-28T03:58:47.416Z,43.92
2018-11-28T04:01:14.632Z,40.90
2018-11-28T04:03:41.902Z,33.75
2018-11-28T04:06:09.121Z,42.05
2018-11-28T04:08:36.477Z,35.45
2018-11-28T04:11:03.708Z,38.60
2018-11-28T04:13:31.953Z,39.65
2018-11-28T04:15:59.345Z,37.38
2018-11-28T04:18:26.639Z,43.98
2018-11-28T04:20:54.022Z,43.30
2018-11-28T04:23:21.277Z,42.73
2018-11-28T04:25:48.503Z,41.70
2018-11-28T04:28:15.748Z,47.23
2018-11-28T04:30:43.086Z,46.68
2018-11-28T04:33:10.460Z,44.40
2018-11-28T04:35:38.319Z,43.55
2018-11-28T04:38:05.562Z,39.65
2018-11-28T04:40:32.890Z,33.58
2018-11-28T04:43:00.114Z,41.35
2018-11-28T04:45:27.414Z,44.08
2018-11-28T04:47:54.867Z,43.58
2018-11-28T04:50:22.092Z,43.65
2018-11-28T04:52:49.442Z,39.13
2018-11-28T04:55:17.308Z,42.33
2018-11-28T04:57:49.467Z,43.73
2018-11-28T05:00:19.862Z,48.35
2018-11-28T05:02:47.328Z,42.85
2018-11-28T05:05:14.527Z,41.05
2018-11-28T05:07:42.721Z,45.20
2018-11-28T05:10:12.954Z,42.40
2018-11-28T05:12:41.444Z,47.62
2018-11-28T05:15:10.951Z,44.13
2018-11-28T05:17:38.303Z,36.05
2018-11-28T05:20:07.605Z,48.45
2018-11-28T05:22:34.820Z,40.67
2018-11-28T05:25:02.057Z,52.70
2018-11-28T05:27:29.298Z,39.73
2018-11-28T05:29:56.573Z,38.48
2018-11-28T05:32:23.790Z,42.20
2018-11-28T05:34:51.016Z,39.27
2018-11-28T05:37:18.278Z,42.40
2018-11-28T05:39:45.570Z,45.13
2018-11-28T05:42:15.816Z,36.43
2018-11-28T05:44:42.970Z,39.95
2018-11-28T05:47:10.175Z,41.30
2018-11-28T05:49:37.582Z,41.00
2018-11-28T05:52:04.828Z,47.90
2018-11-28T05:54:32.943Z,35.80
2018-11-28T05:57:00.111Z,39.88
2018-11-28T05:59:27.626Z,43.40
2018-11-28T06:01:54.648Z,51.40
2018-11-28T06:04:22.516Z,41.80
2018-11-28T06:06:49.830Z,41.02
2018-11-28T06:09:17.094Z,43.73
2018-11-28T06:11:44.394Z,41.00
2018-11-28T06:14:11.603Z,45.30
2018-11-28T06:16:38.809Z,45.80
2018-11-28T06:19:07.092Z,45.40
2018-11-28T06:21:34.411Z,42.83
2018-11-28T06:24:01.716Z,44.05
2018-11-28T06:26:29.100Z,42.07
2018-11-28T06:28:56.331Z,40.23
2018-11-28T06:31:23.479Z,46.17
2018-11-28T06:33:50.699Z,52.60
2018-11-28T06:36:18.973Z,55.33
2018-11-28T06:38:46.401Z,43.80
2018-11-28T06:41:13.759Z,46.43
2018-11-28T06:43:41.078Z,42.27
2018-11-28T06:46:08.302Z,45.00
2018-11-28T06:48:35.676Z,46.90
2018-11-28T06:51:02.976Z,44.43
2018-11-28T06:53:30.451Z,49.53
2018-11-28T06:55:57.712Z,56.23
2018-11-28T06:58:25.047Z,51.90
2018-11-28T07:00:52.367Z,44.87
2018-11-28T07:03:19.758Z,47.27
2018-11-28T07:05:47.359Z,47.37
2018-11-28T07:08:17.887Z,44.20
2018-11-28T07:10:48.751Z,48.03
2018-11-28T07:13:15.423Z,42.53
2018-11-28T07:15:42.796Z,44.70
2018-11-28T07:18:21.619Z,43.43
2018-11-28T07:20:48.884Z,40.07
2018-11-28T07:23:16.516Z,45.47
2018-11-28T07:25:45.140Z,43.10
2018-11-28T07:28:12.495Z,47.27
2018-11-28T07:30:39.925Z,53.87
2018-11-28T07:33:07.656Z,44.63
2018-11-28T07:35:35.024Z,39.20
2018-11-28T07:38:02.349Z,49.10
2018-11-28T07:40:29.814Z,43.60
2018-11-28T07:43:07.348Z,45.07
2018-11-28T07:45:34.674Z,42.93
2018-11-28T07:48:02.962Z,53.33
2018-11-28T07:50:30.296Z,48.80
2018-11-28T07:52:57.665Z,48.27
2018-11-28T07:55:24.996Z,50.33
2018-11-28T07:57:52.152Z,47.20
2018-11-28T08:00:20.097Z,43.50
2018-11-28T08:02:47.395Z,50.00
2018-11-28T08:05:14.777Z,43.97
2018-11-28T08:07:42.190Z,54.10
2018-11-28T08:10:15.588Z,41.07
2018-11-28T08:12:43.051Z,44.20
2018-11-28T08:15:10.300Z,49.23
2018-11-28T08:17:38.438Z,50.93
2018-11-28T08:20:05.935Z,51.90
2018-11-28T08:22:33.225Z,55.83
2018-11-28T08:25:00.539Z,54.10
2018-11-28T08:27:27.902Z,48.97
2018-11-28T08:29:55.347Z,43.47
2018-11-28T08:32:22.642Z,44.50
2018-11-28T08:34:53.345Z,46.30
2018-11-28T08:37:20.636Z,58.30
2018-11-28T08:39:47.990Z,51.07
2018-11-28T08:42:15.286Z,58.80
2018-11-28T08:44:42.695Z,44.10
2018-11-28T08:47:10.094Z,46.13
2018-11-28T08:49:37.448Z,52.50
2018-11-28T08:52:05.046Z,50.63
2018-11-28T08:54:32.323Z,53.93
2018-11-28T08:56:59.671Z,49.83
2018-11-28T08:59:27.023Z,49.30
2018-11-28T09:01:54.342Z,46.07
2018-11-28T09:04:21.611Z,48.83
2018-11-28T09:06:50.990Z,48.97
2018-11-28T09:09:18.163Z,45.03
2018-11-28T09:11:45.438Z,47.63
2018-11-28T09:14:13.718Z,43.13
2018-11-28T09:16:40.947Z,48.27
2018-11-28T09:19:08.152Z,45.63
2018-11-28T09:21:37.517Z,51.40
2018-11-28T09:24:05.467Z,47.90
2018-11-28T09:26:32.745Z,51.30
2018-11-28T09:29:00.249Z,59.63
2018-11-28T09:31:27.459Z,47.40
2018-11-28T09:33:54.810Z,46.87
2018-11-28T09:36:22.067Z,43.70
2018-11-28T09:38:50.215Z,47.20
2018-11-28T09:41:17.514Z,47.83
2018-11-28T09:43:44.819Z,51.50
2018-11-28T09:46:12.018Z,47.23
2018-11-28T09:48:39.250Z,47.83
2018-11-28T09:51:07.282Z,45.80
2018-11-28T09:53:34.595Z,49.90
2018-11-28T09:56:01.898Z,48.40
2018-11-28T09:58:29.158Z,51.70
2018-11-28T10:00:56.454Z,49.13
2018-11-28T10:03:23.659Z,48.63
2018-11-28T10:05:51.023Z,50.10
2018-11-28T10:08:18.203Z,45.53
2018-11-28T10:10:45.515Z,42.77
2018-11-28T10:13:12.740Z,47.23
2018-11-28T10:15:40.138Z,50.63
2018-11-28T10:18:07.407Z,46.00
2018-11-28T10:20:34.759Z,59.90
2018-11-28T10:23:03.052Z,51.03
2018-11-28T10:25:31.449Z,43.37
2018-11-28T10:28:02.145Z,47.67
2018-11-28T10:30:32.885Z,51.00
2018-11-28T10:33:01.307Z,40.80
2018-11-28T10:35:28.677Z,49.73
2018-11-28T10:37:55.962Z,45.57
2018-11-28T10:40:23.735Z,38.97
2018-11-28T10:42:53.233Z,46.47
2018-11-28T10:45:21.455Z,42.13
2018-11-28T10:47:49.818Z,48.63
2018-11-28T10:50:17.250Z,40.13
2018-11-28T10:52:44.549Z,43.20
2018-11-28T10:55:19.543Z,45.13
2018-11-28T10:57:46.847Z,40.00
2018-11-28T11:00:25.790Z,45.10
2018-11-28T11:02:58.973Z,44.13
2018-11-28T11:06:08.343Z,52.13
2018-11-28T11:08:41.231Z,52.87
2018-11-28T11:11:15.112Z,44.10
2018-11-28T11:13:48.305Z,47.87
2018-11-28T11:16:20.166Z,45.27
2018-11-28T11:18:48.598Z,45.90
2018-11-28T11:21:16.607Z,50.90
2018-11-28T11:23:44.012Z,51.00
2018-11-28T11:26:13.921Z,42.53
2018-11-28T11:28:41.062Z,45.33
2018-11-28T11:31:09.090Z,44.73
2018-11-28T11:33:36.402Z,47.07
2018-11-28T11:36:03.760Z,42.20
2018-11-28T11:38:31.118Z,42.30
2018-11-28T11:41:07.126Z,39.57
2018-11-28T11:43:35.348Z,40.17
2018-11-28T11:46:02.616Z,45.93
2018-11-28T11:48:31.072Z,47.10
2018-11-28T11:50:58.456Z,45.20
2018-11-28T11:53:25.712Z,44.63
2018-11-28T11:55:53.212Z,39.43
2018-11-28T11:58:21.288Z,34.43
2018-11-28T12:00:49.196Z,39.73
2018-11-28T12:03:16.653Z,40.60
2018-11-28T12:05:48.832Z,40.17
2018-11-28T12:08:17.320Z,38.00
2018-11-28T12:10:44.655Z,38.90
2018-11-28T12:13:12.003Z,35.90
2018-11-28T12:15:39.764Z,43.73
2018-11-28T12:18:07.249Z,36.50
2018-11-28T12:20:43.701Z,40.90
2018-11-28T12:23:11.099Z,37.97
2018-11-28T12:25:38.352Z,36.10
2018-11-28T12:28:06.364Z,41.10
2018-11-28T12:30:33.681Z,40.67
2018-11-28T12:33:01.112Z,36.17
2018-11-28T12:35:28.374Z,36.00
2018-11-28T12:38:00.825Z,38.23
2018-11-28T12:40:29.780Z,33.33
2018-11-28T12:42:57.266Z,35.83
2018-11-28T12:45:24.747Z,34.03
2018-11-28T12:47:52.039Z,32.33
2018-11-28T12:50:20.491Z,33.20
2018-11-28T12:52:47.807Z,35.20
2018-11-28T12:55:15.605Z,30.70
2018-11-28T12:57:46.650Z,37.13
2018-11-28T13:00:16.259Z,37.70
2018-11-28T13:02:43.573Z,31.63
2018-11-28T13:05:16.674Z,37.80
2018-11-28T13:07:44.167Z,32.00
2018-11-28T13:10:29.591Z,33.00
2018-11-28T13:12:56.933Z,34.37
2018-11-28T13:15:25.888Z,43.53
2018-11-28T13:17:53.183Z,49.47
2018-11-28T13:20:20.954Z,48.43
2018-11-28T13:22:51.293Z,42.73
2018-11-28T13:25:19.946Z,37.60
2018-11-28T13:28:52.019Z,38.77
2018-11-28T13:31:19.450Z,38.43
2018-11-28T13:33:47.829Z,34.20
2018-11-28T13:36:15.308Z,35.03
2018-11-28T13:38:42.873Z,28.67
2018-11-28T13:41:10.307Z,36.67
2018-11-28T13:43:37.510Z,37.80
2018-11-28T13:46:07.246Z,35.23
2018-11-28T13:48:32.474Z,30.37
2018-11-28T13:50:59.871Z,32.53
2018-11-28T13:53:27.180Z,31.73
2018-11-28T13:58:25.274Z,43.67
2018-11-28T14:00:52.626Z,40.47
2018-11-28T14:03:19.852Z,51.37
2018-11-28T14:05:47.996Z,41.57
2018-11-28T14:08:15.431Z,41.77
2018-11-28T14:10:43.227Z,37.90
2018-11-28T14:13:10.720Z,33.00
2018-11-28T14:15:37.978Z,37.03
2018-11-28T14:18:10.912Z,37.30
2018-11-28T14:20:40.262Z,33.73
2018-11-28T14:23:07.726Z,37.73
2018-11-28T14:25:36.288Z,43.10
2018-11-28T14:28:03.652Z,39.23
2018-11-28T14:30:30.916Z,42.23
2018-11-28T14:32:58.395Z,42.80
2018-11-28T14:35:25.767Z,40.93
2018-11-28T14:37:53.030Z,46.93
2018-11-28T14:40:22.373Z,46.27
2018-11-28T14:43:01.630Z,45.23
2018-11-28T14:45:29.443Z,32.17
2018-11-28T14:47:56.767Z,46.03
2018-11-28T14:50:25.066Z,41.50
2018-11-28T14:52:53.294Z,37.90
2018-11-28T14:55:23.813Z,41.33
2018-11-28T14:57:51.333Z,37.97
2018-11-28T15:00:20.780Z,34.93
2018-11-28T15:02:51.157Z,35.43
2018-11-28T15:09:47.601Z,34.50
2018-11-28T15:12:14.975Z,33.70
2018-11-28T15:14:43.372Z,32.93
2018-11-28T15:17:10.763Z,32.70
2018-11-28T15:19:38.353Z,34.47
2018-11-28T15:22:05.787Z,36.13
2018-11-28T15:24:33.390Z,34.00
2018-11-28T15:27:01.897Z,34.23
2018-11-28T15:29:29.347Z,36.20
2018-11-28T15:31:56.660Z,32.20
2018-11-28T15:34:24.130Z,34.53
2018-11-28T15:36:51.477Z,33.80
2018-11-28T15:39:26.751Z,32.43
2018-11-28T15:41:54.379Z,33.10
2018-11-28T15:44:21.756Z,31.10
2018-11-28T15:46:50.395Z,35.60
2018-11-28T15:49:17.766Z,40.83
2018-11-28T15:51:45.144Z,35.07
2018-11-28T15:54:12.458Z,40.23
2018-11-28T15:56:39.824Z,32.93
2018-11-28T15:59:07.079Z,32.90
2018-11-28T16:01:34.613Z,31.33
2018-11-28T16:04:02.012Z,35.17
2018-11-28T16:06:29.613Z,32.60
2018-11-28T16:08:57.140Z,34.67
2018-11-28T16:11:24.536Z,31.53
2018-11-28T16:13:52.768Z,29.73
2018-11-28T16:16:21.619Z,34.73
2018-11-28T16:18:48.970Z,31.87
2018-11-28T16:21:16.578Z,37.00
2018-11-28T16:23:43.854Z,33.70
2018-11-28T16:26:11.217Z,36.83
2018-11-28T16:28:38.590Z,36.73
2018-11-28T16:31:06.005Z,35.73
2018-11-28T16:33:35.573Z,28.00
2018-11-28T16:36:03.147Z,29.07
2018-11-28T16:38:30.379Z,31.70
2018-11-28T16:40:57.700Z,29.40
2018-11-28T16:43:25.019Z,32.13
2018-11-28T16:45:52.532Z,34.97
2018-11-28T16:48:19.918Z,34.60
2018-11-28T16:50:48.728Z,34.03
2018-11-28T16:53:16.000Z,31.47
2018-11-28T16:55:43.401Z,28.00
2018-11-28T16:58:11.731Z,33.20
2018-11-28T17:00:40.635Z,30.93
2018-11-28T17:03:07.947Z,38.10
2018-11-28T17:05:36.524Z,31.10
2018-11-28T17:08:04.066Z,30.37
2018-11-28T17:10:33.066Z,33.33
2018-11-28T17:13:01.202Z,31.03
2018-11-28T17:15:29.126Z,33.20
2018-11-28T17:17:56.910Z,35.07
2018-11-28T17:20:26.948Z,34.70
2018-11-28T17:22:57.094Z,33.60
2018-11-28T17:25:27.326Z,33.93
2018-11-28T17:27:54.613Z,34.43
2018-11-28T17:30:24.648Z,35.23
2018-11-28T17:32:52.515Z,34.27
2018-11-28T17:35:20.156Z,34.13
2018-11-28T17:37:47.789Z,31.93
2018-11-28T17:40:16.250Z,31.60
2018-11-28T17:42:44.850Z,37.80
2018-11-28T17:45:15.240Z,33.33
2018-11-28T17:47:44.260Z,31.97
2018-11-28T17:50:18.156Z,33.20
2018-11-28T17:52:54.005Z,32.83
2018-11-28T17:55:21.257Z,32.30
2018-11-28T17:57:49.172Z,32.73
2018-11-28T18:00:18.505Z,27.97
2018-11-28T18:02:45.784Z,31.10
2018-11-28T18:05:13.483Z,26.23
2018-11-28T18:07:40.947Z,32.40
2018-11-28T18:10:10.816Z,26.70
2018-11-28T18:12:42.792Z,31.93
2018-11-28T18:15:10.271Z,32.00
2018-11-28T18:17:37.627Z,34.30
2018-11-28T18:20:05.375Z,35.53
2018-11-28T18:22:32.854Z,32.13
2018-11-28T18:25:01.912Z,34.80
2018-11-28T18:27:29.622Z,36.83
2018-11-28T18:29:57.284Z,40.60
2018-11-28T18:32:25.607Z,35.50
2018-11-28T18:34:53.062Z,35.10
2018-11-28T18:37:24.249Z,34.43
2018-11-28T18:39:48.212Z,37.53
2018-11-28T18:42:16.034Z,41.50
2018-11-28T18:44:43.679Z,37.20
2018-11-28T18:47:11.488Z,40.37
2018-11-28T18:49:39.121Z,37.40
2018-11-28T18:52:06.655Z,39.90
2018-11-28T18:54:34.733Z,36.47
2018-11-28T18:57:02.548Z,33.43
2018-11-28T18:59:30.011Z,40.40
2018-11-28T19:01:57.496Z,30.97
2018-11-28T19:04:24.877Z,34.33
2018-11-28T19:06:52.251Z,30.73
2018-11-28T19:09:25.672Z,31.40
2018-11-28T19:11:53.062Z,29.10
2018-11-28T19:14:20.878Z,30.87
2018-11-28T19:16:48.333Z,29.97
2018-11-28T19:19:15.631Z,28.97
2018-11-28T19:21:43.000Z,29.43
2018-11-28T19:24:10.285Z,30.10
2018-11-28T19:26:37.658Z,36.43
2018-11-28T19:29:05.073Z,31.87
2018-11-28T19:31:34.425Z,36.13
2018-11-28T19:34:01.848Z,33.80
2018-11-28T19:36:29.279Z,38.27
2018-11-28T19:38:56.547Z,31.97
2018-11-28T19:41:25.517Z,32.10
2018-11-28T19:43:53.048Z,31.83
2018-11-28T19:46:21.325Z,29.43
2018-11-28T19:48:48.921Z,33.87
2018-11-28T19:51:16.370Z,33.20
2018-11-28T19:53:44.566Z,28.00
2018-11-28T19:56:12.016Z,30.37
2018-11-28T19:58:39.943Z,31.10
2018-11-28T20:01:07.733Z,36.70
2018-11-28T20:03:35.200Z,40.40
2018-11-28T20:06:03.765Z,40.87
2018-11-28T20:08:31.310Z,30.43
2018-11-28T20:10:58.753Z,28.43
2018-11-28T20:13:31.241Z,32.57
2018-11-28T20:15:58.811Z,32.67
2018-11-28T20:18:26.363Z,34.50
2018-11-28T20:20:55.492Z,34.70
2018-11-28T20:23:24.474Z,32.17
2018-11-28T20:25:52.058Z,33.80
2018-11-28T20:28:23.720Z,32.83
2018-11-28T20:30:51.787Z,38.03
2018-11-28T20:33:19.197Z,36.83
2018-11-28T20:35:48.499Z,39.17
2018-11-28T20:38:21.212Z,36.53
2018-11-28T20:40:48.679Z,34.60
2018-11-28T20:43:15.955Z,37.47
2018-11-28T20:45:43.332Z,35.73
2018-11-28T20:48:10.574Z,35.57
2018-11-28T20:50:38.897Z,35.60
2018-11-28T20:53:21.541Z,38.20
2018-11-28T20:55:48.887Z,32.77
2018-11-28T20:58:16.285Z,42.30
2018-11-28T21:00:43.780Z,42.10
2018-11-28T21:03:12.454Z,36.30
2018-11-28T21:05:41.215Z,37.00
2018-11-28T21:08:09.291Z,35.20
2018-11-28T21:10:37.792Z,37.70
2018-11-28T21:13:07.108Z,33.77
2018-11-28T21:15:34.938Z,37.70
2018-11-28T21:18:02.400Z,39.60
2018-11-28T21:20:29.632Z,37.40
2018-11-28T21:23:00.369Z,37.40
2018-11-28T21:25:27.918Z,36.87
2018-11-28T21:27:55.431Z,34.10
2018-11-28T21:30:23.771Z,35.73
2018-11-28T21:32:52.242Z,35.93
2018-11-28T21:35:24.263Z,35.70
2018-11-28T21:37:51.737Z,33.80
2018-11-28T21:40:19.447Z,37.27
2018-11-28T21:42:46.774Z,34.30
2018-11-28T21:45:15.379Z,36.67
2018-11-28T21:47:45.982Z,36.27
2018-11-28T21:50:14.427Z,35.57
2018-11-28T21:52:41.934Z,38.97
2018-11-28T21:55:11.286Z,39.70
2018-11-28T21:57:38.678Z,33.70
2018-11-28T22:00:10.931Z,35.33
2018-11-28T22:02:38.582Z,36.50
2018-11-28T22:05:07.671Z,37.23
2018-11-28T22:07:35.063Z,39.83
2018-11-28T22:10:02.556Z,36.13
2018-11-28T22:12:29.978Z,37.00
2018-11-28T22:14:57.311Z,34.50
2018-11-28T22:17:25.119Z,41.03
2018-11-28T22:20:00.253Z,37.43
2018-11-28T22:22:27.762Z,37.37
2018-11-28T22:24:54.979Z,35.80
2018-11-28T22:27:22.218Z,34.23
2018-11-28T22:29:49.543Z,40.60
2018-11-28T22:32:16.889Z,36.30
2018-11-28T22:34:44.050Z,41.77
2018-11-28T22:37:13.402Z,36.87
2018-11-28T22:39:41.042Z,40.90
2018-11-28T22:42:08.733Z,40.67
2018-11-28T22:44:35.903Z,38.73
2018-11-28T22:47:05.691Z,35.93
2018-11-28T22:49:33.068Z,37.10
2018-11-28T22:52:00.746Z,39.10
2018-11-28T22:54:30.054Z,41.93
2018-11-28T22:56:58.376Z,40.17
2018-11-28T22:59:25.955Z,40.33
2018-11-28T23:03:03.266Z,40.73
2018-11-28T23:05:31.598Z,43.23
2018-11-28T23:07:59.935Z,47.83
2018-11-28T23:10:27.232Z,38.30
2018-11-28T23:12:54.950Z,46.60
2018-11-28T23:15:22.269Z,39.40
2018-11-28T23:17:54.879Z,45.80
2018-11-28T23:20:17.247Z,38.60
2018-11-28T23:22:44.779Z,42.40
2018-11-28T23:25:12.276Z,46.23
2018-11-28T23:27:41.964Z,42.40
2018-11-28T23:30:12.157Z,45.30
2018-11-28T23:32:39.562Z,47.00
2018-11-28T23:35:08.516Z,42.17
2018-11-28T23:37:36.082Z,41.17
2018-11-28T23:40:05.930Z,47.93
2018-11-28T23:42:34.064Z,42.60
2018-11-28T23:45:01.448Z,43.80
2018-11-28T23:47:28.979Z,41.70
2018-11-28T23:49:56.421Z,45.70
2018-11-28T23:52:23.723Z,43.00
2018-11-28T23:54:53.183Z,47.47
2018-11-28T23:57:20.362Z,49.43
2018-11-28T23:59:47.594Z,49.17
